Time;durP1;ratioP1;P1;durP2;ratioP2;P2;SDS_P1;SDS_P2;PMS_P1;PMS_P2;Temp;Humidity;BMP_temperature;BMP_pressure;BME280_temperature;BME280_humidity;BME280_pressure;Samples;Min_cycle;Max_cycle;Signal;HPM_P1;HPM_P2
2021/08/14 00:01:11;;;;;;;11.85;8.70;;;;;;;22.85;64.06;101051.28;4982487;28;20085;-75
2021/08/14 00:03:37;;;;;;;9.98;8.40;;;;;;;22.82;64.01;101056.78;4967330;28;20038;-75
2021/08/14 00:06:02;;;;;;;10.52;7.85;;;;;;;22.82;63.57;101049.59;4983200;28;20456;-75
2021/08/14 00:08:27;;;;;;;10.63;8.55;;;;;;;22.81;63.81;101046.97;4983241;28;20590;-75
2021/08/14 00:10:53;;;;;;;11.50;8.18;;;;;;;22.73;64.51;101041.97;4984618;28;20514;-75
2021/08/14 00:13:18;;;;;;;8.27;7.20;;;;;;;22.62;64.50;101039.78;4982175;28;20416;-75
2021/08/14 00:15:44;;;;;;;10.25;7.75;;;;;;;22.51;65.00;101048.38;4984914;28;20408;-74
2021/08/14 00:18:09;;;;;;;13.10;8.55;;;;;;;22.47;65.43;101053.97;4982437;28;20412;-75
2021/08/14 00:20:34;;;;;;;9.02;8.10;;;;;;;22.38;65.86;101051.75;4984114;28;20106;-74
2021/08/14 00:23:00;;;;;;;10.70;8.23;;;;;;;22.39;65.76;101048.09;4983508;28;20041;-74
2021/08/14 00:25:26;;;;;;;11.45;8.63;;;;;;;22.44;65.94;101057.69;4982517;28;20043;-75
2021/08/14 00:27:52;;;;;;;9.57;8.23;;;;;;;22.48;65.59;101058.44;4984964;28;20522;-74
2021/08/14 00:30:17;;;;;;;11.38;8.70;;;;;;;22.49;65.79;101058.34;4981697;28;20074;-74
2021/08/14 00:32:43;;;;;;;12.93;8.93;;;;;;;22.45;65.87;101067.50;4982042;28;20041;-75
2021/08/14 00:35:09;;;;;;;11.63;8.80;;;;;;;22.42;65.97;101064.06;4983601;28;20026;-74
2021/08/14 00:37:35;;;;;;;10.90;8.90;;;;;;;22.44;65.96;101072.94;4983323;28;20039;-74
2021/08/14 00:40:00;;;;;;;10.40;8.60;;;;;;;22.43;66.16;101072.09;4982522;28;20098;-73
2021/08/14 00:42:25;;;;;;;12.30;9.23;;;;;;;22.42;65.98;101069.47;4984461;28;20030;-75
2021/08/14 00:44:51;;;;;;;10.98;8.57;;;;;;;22.42;66.23;101078.38;4981237;28;20386;-75
2021/08/14 00:47:16;;;;;;;10.13;8.25;;;;;;;22.37;66.57;101066.97;4984400;28;20432;-75
2021/08/14 00:49:41;;;;;;;13.40;8.85;;;;;;;22.28;66.46;101075.50;4982167;28;20438;-75
2021/08/14 00:52:07;;;;;;;9.65;8.48;;;;;;;22.19;66.84;101075.91;4983308;28;20543;-75
2021/08/14 00:54:32;;;;;;;12.05;8.63;;;;;;;22.11;67.49;101068.16;4983223;28;20043;-75
2021/08/14 00:56:58;;;;;;;11.27;9.70;;;;;;;22.01;67.59;101080.28;4981754;28;20041;-75
2021/08/14 00:59:29;;;;;;;12.85;9.63;;;;;;;21.93;68.08;101072.56;4984514;28;20093;-75
2021/08/14 01:01:54;;;;;;;11.63;9.15;;;;;;;21.87;68.33;101076.38;4978881;28;20039;-75
2021/08/14 01:04:22;;;;;;;13.82;10.35;;;;;;;21.81;69.14;101079.34;4982983;28;20394;-75
2021/08/14 01:06:47;;;;;;;11.18;9.10;;;;;;;21.77;68.66;101083.13;4982928;28;20061;-74
2021/08/14 01:09:12;;;;;;;11.77;9.40;;;;;;;21.76;69.46;101081.34;4979906;28;20405;-74
2021/08/14 01:11:37;;;;;;;11.60;9.35;;;;;;;21.73;69.26;101081.50;4984208;28;20385;-74
2021/08/14 01:14:05;;;;;;;11.65;9.57;;;;;;;21.61;69.68;101082.91;4981007;28;20516;-75
2021/08/14 01:16:30;;;;;;;10.25;9.18;;;;;;;21.57;69.75;101092.03;4982909;28;20030;-75
2021/08/14 01:18:56;;;;;;;12.57;9.27;;;;;;;21.52;69.52;101095.88;4978002;28;20077;-75
2021/08/14 01:21:22;;;;;;;14.00;9.88;;;;;;;21.49;70.01;101104.06;4982054;28;20126;-74
2021/08/14 01:23:49;;;;;;;9.85;8.43;;;;;;;21.45;70.17;101101.47;4983747;28;20129;-74
2021/08/14 01:26:15;;;;;;;12.27;8.95;;;;;;;21.41;70.07;101096.31;4980398;28;20481;-75
2021/08/14 01:28:42;;;;;;;12.02;8.52;;;;;;;21.38;69.58;101105.38;4983486;28;20038;-74
2021/08/14 01:31:09;;;;;;;9.68;8.50;;;;;;;21.33;70.39;101104.66;4981980;28;20404;-75
2021/08/14 01:33:37;;;;;;;10.23;9.05;;;;;;;21.29;69.74;101099.47;4981746;28;20049;-74
2021/08/14 01:36:08;;;;;;;15.48;10.68;;;;;;;21.27;70.09;101104.91;4960044;28;20050;-74
2021/08/14 01:38:44;;;;;;;17.08;11.35;;;;;;;21.21;70.48;101105.16;4981278;28;20069;-73
2021/08/14 01:41:09;;;;;;;11.82;9.35;;;;;;;21.18;69.70;101099.94;4981343;28;20054;-74
2021/08/14 01:43:50;;;;;;;10.02;8.80;;;;;;;21.13;70.14;101109.97;4983658;28;20034;-74
2021/08/14 01:46:15;;;;;;;10.18;8.00;;;;;;;21.21;69.01;101110.53;4980716;28;20401;-75
2021/08/14 01:48:41;;;;;;;11.02;8.48;;;;;;;21.16;68.98;101118.75;4981275;28;20047;-75
2021/08/14 01:51:06;;;;;;;10.50;8.27;;;;;;;21.14;69.44;101115.28;4983677;28;20034;-75
2021/08/14 01:53:31;;;;;;;10.85;8.27;;;;;;;21.13;69.35;101118.91;4980519;28;20043;-75
2021/08/14 01:55:57;;;;;;;9.95;7.97;;;;;;;21.06;69.71;101119.22;4965410;28;20045;-75
2021/08/14 01:58:22;;;;;;;9.32;7.22;;;;;;;21.08;69.38;101122.72;4949322;28;20042;-75
2021/08/14 02:00:47;;;;;;;10.60;8.10;;;;;;;21.01;69.59;101114.91;4982004;28;20045;-75
2021/08/14 02:03:13;;;;;;;9.52;7.70;;;;;;;20.96;69.60;101121.41;4980093;28;20042;-75
2021/08/14 02:05:38;;;;;;;10.85;7.78;;;;;;;20.92;69.56;101112.59;4980415;28;20039;-75
2021/08/14 02:08:03;;;;;;;8.10;7.30;;;;;;;20.88;69.19;101115.44;4983621;28;20144;-75
2021/08/14 02:10:29;;;;;;;11.20;7.60;;;;;;;20.81;69.66;101122.00;4980601;28;20046;-74
2021/08/14 02:12:54;;;;;;;12.38;7.40;;;;;;;20.78;69.61;101118.50;4982727;28;20046;-74
2021/08/14 02:15:19;;;;;;;10.60;7.25;;;;;;;20.74;69.71;101127.59;4981281;28;20046;-75
2021/08/14 02:17:45;;;;;;;10.35;8.07;;;;;;;20.72;69.87;101117.84;4981602;28;20066;-74
2021/08/14 02:20:10;;;;;;;9.65;7.35;;;;;;;20.75;70.28;101123.09;4984059;28;20500;-75
2021/08/14 02:22:35;;;;;;;8.95;7.25;;;;;;;20.76;70.10;101124.88;4984186;28;20502;-75
2021/08/14 02:25:01;;;;;;;10.13;7.43;;;;;;;20.79;70.22;101122.06;4987054;28;20045;-74
2021/08/14 02:27:26;;;;;;;9.52;7.15;;;;;;;20.80;69.77;101126.47;4984221;28;20035;-74
2021/08/14 02:29:51;;;;;;;11.07;7.60;;;;;;;20.82;70.08;101132.66;4968877;28;20042;-74
2021/08/14 02:32:17;;;;;;;8.25;7.00;;;;;;;20.83;69.50;101131.75;4969154;28;20042;-75
2021/08/14 02:34:42;;;;;;;10.02;6.93;;;;;;;20.83;69.24;101133.53;4984947;28;20043;-75
2021/08/14 02:37:07;;;;;;;9.68;7.13;;;;;;;20.83;69.21;101137.13;4986331;28;20029;-74
2021/08/14 02:39:33;;;;;;;10.50;7.85;;;;;;;20.86;69.51;101142.34;4983826;28;20034;-75
2021/08/14 02:41:58;;;;;;;8.40;6.93;;;;;;;20.83;69.96;101141.56;4969392;28;20045;-74
2021/08/14 02:44:23;;;;;;;11.48;6.97;;;;;;;20.83;69.69;101131.75;4984293;28;20093;-74
2021/08/14 02:46:48;;;;;;;9.52;6.60;;;;;;;20.77;70.03;101140.88;4985391;28;20038;-74
2021/08/14 02:49:14;;;;;;;9.10;7.55;;;;;;;20.73;69.90;101144.63;4985318;28;20035;-75
2021/08/14 02:51:40;;;;;;;11.10;9.52;;;;;;;20.73;70.08;101143.75;4982408;28;20101;-75
2021/08/14 02:54:05;;;;;;;11.70;7.18;;;;;;;20.73;69.63;101141.09;4965410;28;20038;-74
2021/08/14 02:56:31;;;;;;;10.50;7.13;;;;;;;20.65;70.46;101138.69;4986345;28;20146;-75
2021/08/14 02:58:56;;;;;;;11.07;7.55;;;;;;;20.60;69.94;101131.75;4983827;28;20051;-74
2021/08/14 03:01:21;;;;;;;12.10;8.20;;;;;;;20.56;70.85;101139.03;4982611;28;20034;-74
2021/08/14 03:03:47;;;;;;;8.63;6.88;;;;;;;20.52;70.12;101132.88;5036371;23;20093;-81
2021/08/14 03:06:23;;;;;;;8.77;6.95;;;;;;;20.45;70.54;101122.44;4998118;28;20030;-81
2021/08/14 03:08:48;;;;;;;17.02;7.53;;;;;;;20.39;70.99;101138.78;4995075;28;20040;-81
2021/08/14 03:11:13;;;;;;;10.70;7.93;;;;;;;20.35;70.82;101138.00;4998183;28;20050;-81
2021/08/14 03:13:39;;;;;;;12.05;7.97;;;;;;;20.30;71.21;101137.28;4977280;28;20046;-81
2021/08/14 03:16:04;;;;;;;8.45;7.25;;;;;;;20.20;71.15;101133.19;4961853;28;20121;-80
2021/08/14 03:18:29;;;;;;;12.50;7.68;;;;;;;20.13;71.85;101135.25;4951476;28;20042;-81
2021/08/14 03:20:55;;;;;;;11.18;7.22;;;;;;;20.01;71.69;101141.91;4969619;28;20041;-81
2021/08/14 03:23:20;;;;;;;11.15;8.40;;;;;;;19.90;72.28;101138.75;4951017;28;20039;-81
2021/08/14 03:25:45;;;;;;;10.85;8.32;;;;;;;19.81;71.98;101150.66;4969690;28;20350;-81
2021/08/14 03:28:11;;;;;;;9.38;7.90;;;;;;;19.74;72.28;101149.13;4967847;28;20406;-81
2021/08/14 03:30:36;;;;;;;9.07;7.50;;;;;;;19.62;73.01;101155.75;4949709;28;20043;-81
2021/08/14 03:33:01;;;;;;;10.82;7.13;;;;;;;19.53;73.43;101149.81;4936993;28;20050;-81
2021/08/14 03:35:29;;;;;;;10.10;7.47;;;;;;;19.42;73.38;101153.72;4947045;29;20035;-81
2021/08/14 03:37:55;;;;;;;10.00;7.30;;;;;;;19.37;73.77;101157.47;4967927;28;20043;-81
2021/08/14 03:40:20;;;;;;;9.60;7.97;;;;;;;19.27;74.14;101155.09;4951289;28;20504;-81
2021/08/14 03:42:46;;;;;;;9.95;7.90;;;;;;;19.17;74.38;101150.94;4968789;28;20043;-81
2021/08/14 03:45:11;;;;;;;8.88;6.85;;;;;;;19.10;74.71;101153.88;4949528;28;20050;-81
2021/08/14 03:47:37;;;;;;;9.55;8.05;;;;;;;19.03;75.13;101156.75;4968229;28;20102;-81
2021/08/14 03:50:04;;;;;;;12.30;8.75;;;;;;;18.95;76.15;101157.91;4949593;29;20035;-81
2021/08/14 03:52:29;;;;;;;8.90;7.25;;;;;;;18.90;75.76;101154.50;4949420;28;20038;-82
2021/08/14 03:54:54;;;;;;;12.32;7.60;;;;;;;18.86;75.87;101158.19;4952286;28;20443;-80
2021/08/14 03:57:20;;;;;;;9.27;8.02;;;;;;;18.80;75.86;101154.78;4946759;29;20035;-80
2021/08/14 03:59:45;;;;;;;13.77;9.65;;;;;;;18.76;75.77;101152.25;4953099;28;20445;-80
2021/08/14 04:02:10;;;;;;;11.05;8.63;;;;;;;18.69;75.92;101156.88;4968035;28;20420;-80
2021/08/14 04:04:35;;;;;;;10.07;9.05;;;;;;;18.62;76.73;101164.19;4951194;28;20079;-81
2021/08/14 04:07:01;;;;;;;11.18;8.10;;;;;;;18.57;76.99;101168.78;4970782;28;20043;-80
2021/08/14 04:09:26;;;;;;;8.70;7.57;;;;;;;18.55;76.98;101167.09;4951816;28;20042;-80
2021/08/14 04:11:52;;;;;;;10.18;8.00;;;;;;;18.53;76.77;101169.81;4949217;29;20063;-81
2021/08/14 04:14:17;;;;;;;11.50;8.02;;;;;;;18.46;76.77;101168.22;4965977;28;20039;-81
2021/08/14 04:16:42;;;;;;;15.35;7.63;;;;;;;18.45;76.98;101168.28;4969182;28;20066;-81
2021/08/14 04:19:08;;;;;;;13.00;7.90;;;;;;;18.43;76.80;101170.13;4966985;28;20039;-82
2021/08/14 04:21:34;;;;;;;10.13;8.25;;;;;;;18.42;77.14;101173.69;4968748;28;20028;-81
2021/08/14 04:23:59;;;;;;;11.85;7.85;;;;;;;18.38;77.51;101170.25;4967889;28;20043;-81
2021/08/14 04:26:27;;;;;;;13.15;9.25;;;;;;;18.37;77.75;101181.88;4967331;28;20035;-81
2021/08/14 04:28:52;;;;;;;10.25;8.60;;;;;;;18.35;77.96;101178.34;4969155;28;20034;-80
2021/08/14 04:31:18;;;;;;;10.70;8.18;;;;;;;18.35;77.65;101179.22;4965846;28;20402;-81
2021/08/14 04:33:43;;;;;;;9.27;7.85;;;;;;;18.34;78.02;101172.16;4971422;28;20074;-81
2021/08/14 04:36:08;;;;;;;9.35;8.27;;;;;;;18.31;77.84;101174.91;4968763;28;20034;-79
2021/08/14 04:38:34;;;;;;;12.18;8.35;;;;;;;18.31;78.05;101172.22;4965844;28;20039;-79
2021/08/14 04:40:59;;;;;;;11.20;8.57;;;;;;;18.28;78.46;101177.63;4968287;28;20046;-80
2021/08/14 04:43:24;;;;;;;10.48;8.60;;;;;;;18.28;78.20;101180.31;4966690;28;20043;-79
2021/08/14 04:45:50;;;;;;;9.93;8.82;;;;;;;18.29;78.47;101178.53;4966973;28;20066;-80
2021/08/14 04:48:15;;;;;;;10.30;8.02;;;;;;;18.30;78.29;101177.59;4968035;28;20039;-80
2021/08/14 04:50:40;;;;;;;12.65;10.30;;;;;;;18.29;78.69;101179.41;4966847;28;20080;-79
2021/08/14 04:53:06;;;;;;;9.23;7.97;;;;;;;18.33;78.12;101178.38;4968147;28;20035;-80
2021/08/14 04:55:31;;;;;;;11.88;8.25;;;;;;;18.36;78.21;101172.94;4948181;29;20494;-78
2021/08/14 04:57:56;;;;;;;10.40;8.88;;;;;;;18.40;77.86;101177.31;4951296;28;20056;-80
2021/08/14 05:00:21;;;;;;;10.15;7.95;;;;;;;18.41;77.94;101175.50;4965012;28;20039;-78
2021/08/14 05:02:47;;;;;;;9.68;8.05;;;;;;;18.46;77.69;101178.06;4966610;28;20042;-79
2021/08/14 05:05:12;;;;;;;10.80;8.50;;;;;;;18.45;78.14;101179.84;4951097;28;20053;-79
2021/08/14 05:07:37;;;;;;;11.13;8.45;;;;;;;18.46;78.16;101180.72;4965667;28;20054;-80
2021/08/14 05:10:04;;;;;;;9.85;8.18;;;;;;;18.52;77.69;101186.78;4965698;28;20106;-79
2021/08/14 05:12:30;;;;;;;10.85;8.82;;;;;;;18.58;77.20;101175.03;4964603;28;20037;-80
2021/08/14 05:14:55;;;;;;;10.68;8.65;;;;;;;18.59;77.30;101177.66;4967448;28;20023;-79
2021/08/14 05:17:20;;;;;;;11.70;9.57;;;;;;;18.63;77.46;101173.09;4963921;28;20050;-80
2021/08/14 05:19:46;;;;;;;11.82;7.82;;;;;;;18.69;76.71;101175.59;4968204;28;20035;-80
2021/08/14 05:22:11;;;;;;;15.63;10.00;;;;;;;18.75;76.50;101179.91;4965120;28;20050;-80
2021/08/14 05:24:36;;;;;;;11.57;8.82;;;;;;;18.78;76.97;101179.81;4967153;28;20031;-80
2021/08/14 05:27:02;;;;;;;10.75;8.73;;;;;;;18.83;76.77;101181.41;4965630;28;20129;-80
2021/08/14 05:29:27;;;;;;;11.75;9.73;;;;;;;18.86;76.28;101184.94;4949487;28;20404;-80
2021/08/14 05:31:52;;;;;;;11.13;8.48;;;;;;;18.90;76.46;101182.13;4946279;29;20109;-79
2021/08/14 05:34:18;;;;;;;10.23;7.53;;;;;;;18.99;75.95;101180.97;4966797;28;20038;-80
2021/08/14 05:36:43;;;;;;;11.38;8.10;;;;;;;19.08;76.10;101174.47;4964200;28;20043;-80
2021/08/14 05:39:08;;;;;;;11.32;9.57;;;;;;;19.12;75.53;101171.63;4967225;28;20097;-80
2021/08/14 05:41:39;;;;;;;10.48;8.55;;;;;;;19.21;75.36;101168.66;4963922;28;20046;-79
2021/08/14 05:44:04;;;;;;;10.27;8.27;;;;;;;19.29;75.29;101172.91;4949820;28;20591;-80
2021/08/14 05:46:30;;;;;;;11.35;9.90;;;;;;;19.26;74.90;101174.75;4945424;29;20079;-80
2021/08/14 05:48:55;;;;;;;10.63;8.93;;;;;;;19.33;75.03;101179.91;4954586;28;20066;-80
2021/08/14 05:51:20;;;;;;;10.07;7.80;;;;;;;19.38;74.72;101184.19;4964891;28;20408;-80
2021/08/14 05:53:45;;;;;;;8.98;7.72;;;;;;;19.42;74.84;101179.63;4966055;28;20489;-80
2021/08/14 05:56:11;;;;;;;10.07;8.07;;;;;;;19.51;75.16;101187.34;4964557;28;20031;-80
2021/08/14 05:58:36;;;;;;;10.77;9.15;;;;;;;19.56;74.58;101190.72;4967905;28;20815;-80
2021/08/14 06:01:01;;;;;;;13.90;11.43;;;;;;;19.55;74.20;101190.81;4965207;28;20533;-80
2021/08/14 06:03:35;;;;;;;9.98;8.23;;;;;;;19.67;73.83;101180.56;4969041;28;20035;-79
2021/08/14 06:06:01;;;;;;;10.90;8.00;;;;;;;19.71;73.29;101189.38;4970806;28;20078;-80
2021/08/14 06:08:26;;;;;;;11.15;8.02;;;;;;;19.81;73.46;101182.81;4973680;28;20054;-79
2021/08/14 06:10:52;;;;;;;10.68;8.25;;;;;;;19.88;73.14;101195.03;4979640;28;20031;-80
2021/08/14 06:13:17;;;;;;;9.38;8.18;;;;;;;19.92;72.58;101188.66;4957681;28;20039;-80
2021/08/14 06:15:42;;;;;;;13.02;10.63;;;;;;;19.98;72.46;101190.25;4956072;28;20111;-80
2021/08/14 06:18:11;;;;;;;11.07;8.60;;;;;;;20.02;72.05;101183.00;4971357;28;20042;-80
2021/08/14 06:20:36;;;;;;;10.00;8.10;;;;;;;20.10;72.53;101188.94;4956883;28;20114;-79
2021/08/14 06:23:01;;;;;;;9.93;7.57;;;;;;;20.22;72.42;101190.31;4955192;28;20121;-80
2021/08/14 06:25:27;;;;;;;12.13;8.50;;;;;;;20.29;72.36;101186.47;4951535;28;20045;-79
2021/08/14 06:27:52;;;;;;;9.40;8.15;;;;;;;20.30;71.88;101193.59;4981953;28;20034;-80
2021/08/14 06:30:17;;;;;;;10.15;8.27;;;;;;;20.35;71.63;101194.28;4974987;28;20102;-80
2021/08/14 06:32:43;;;;;;;11.90;8.70;;;;;;;20.40;71.75;101196.81;4945423;28;20043;-80
2021/08/14 06:35:08;;;;;;;12.23;9.07;;;;;;;20.46;71.51;101188.53;4966547;28;20109;-80
2021/08/14 06:37:44;;;;;;;12.20;9.13;;;;;;;20.55;70.51;101190.94;4946001;28;20051;-80
2021/08/14 06:40:11;;;;;;;10.02;8.85;;;;;;;20.60;70.77;101191.63;4948195;28;20084;-79
2021/08/14 06:42:36;;;;;;;13.18;8.45;;;;;;;20.65;71.03;101186.09;4954083;28;20122;-80
2021/08/14 06:45:02;;;;;;;10.07;8.15;;;;;;;20.72;70.06;101192.97;4959386;28;20045;-80
2021/08/14 06:47:28;;;;;;;11.60;8.25;;;;;;;20.78;68.95;101187.38;4945710;28;20053;-79
2021/08/14 06:49:53;;;;;;;10.90;7.55;;;;;;;20.77;68.07;101191.84;4963188;28;20026;-80
2021/08/14 06:52:18;;;;;;;9.20;7.72;;;;;;;20.78;68.50;101195.44;4968961;28;20135;-80
2021/08/14 06:54:44;;;;;;;9.55;8.25;;;;;;;20.89;67.94;101201.25;4974029;28;20042;-80
2021/08/14 06:57:09;;;;;;;10.07;7.95;;;;;;;20.90;67.96;101200.31;4979406;28;20038;-79
2021/08/14 06:59:34;;;;;;;11.95;8.38;;;;;;;21.00;66.65;101199.03;4972956;28;20053;-79
2021/08/14 07:02:00;;;;;;;10.45;7.38;;;;;;;21.08;65.92;101205.91;4966668;28;20035;-80
2021/08/14 07:04:25;;;;;;;12.43;8.05;;;;;;;21.14;65.68;101208.34;4972050;28;20409;-80
2021/08/14 07:06:50;;;;;;;10.10;7.80;;;;;;;21.23;64.59;101205.31;4972741;28;20425;-79
2021/08/14 07:09:15;;;;;;;11.55;7.05;;;;;;;21.26;64.39;101205.19;4969896;28;20500;-79
2021/08/14 07:11:45;;;;;;;10.18;6.60;;;;;;;21.30;64.10;101201.44;4949761;29;20494;-80
2021/08/14 07:14:11;;;;;;;9.35;6.72;;;;;;;21.39;64.29;101200.22;4966858;28;20058;-80
2021/08/14 07:16:36;;;;;;;9.68;6.90;;;;;;;21.43;64.62;101193.78;4969622;28;20114;-79
2021/08/14 07:19:02;;;;;;;10.80;7.10;;;;;;;21.44;65.50;101203.59;4967416;28;20117;-79
2021/08/14 07:21:28;;;;;;;19.70;16.20;;;;;;;21.53;62.85;101191.59;4951076;28;20042;-79
2021/08/14 07:23:54;;;;;;;10.20;8.10;;;;;;;21.53;62.69;101192.47;4967038;28;20071;-78
2021/08/14 07:26:19;;;;;;;9.07;5.53;;;;;;;21.62;62.21;101191.22;4970160;28;20039;-79
2021/08/14 07:28:44;;;;;;;6.93;5.32;;;;;;;21.63;61.45;101192.97;4974880;28;20127;-79
2021/08/14 07:31:09;;;;;;;7.85;5.80;;;;;;;21.62;61.46;101194.78;4971954;28;20039;-79
2021/08/14 07:33:35;;;;;;;11.95;6.43;;;;;;;21.63;61.53;101193.84;4975435;28;20046;-79
2021/08/14 07:36:00;;;;;;;8.65;6.20;;;;;;;21.68;61.44;101190.97;4969193;28;20042;-79
2021/08/14 07:38:25;;;;;;;18.50;8.30;;;;;;;21.74;61.45;101190.69;4970607;28;20047;-79
2021/08/14 07:40:51;;;;;;;8.23;5.93;;;;;;;21.82;61.07;101191.28;4968956;28;20039;-79
2021/08/14 07:43:16;;;;;;;9.98;6.38;;;;;;;21.86;60.73;101182.13;4970276;28;20047;-80
2021/08/14 07:45:41;;;;;;;8.15;5.55;;;;;;;21.93;60.75;101193.50;4969037;28;20038;-80
2021/08/14 07:48:08;;;;;;;15.95;6.82;;;;;;;21.92;60.34;101182.81;4968556;28;20046;-79
2021/08/14 07:50:34;;;;;;;10.48;6.53;;;;;;;21.94;59.42;101181.78;4965747;28;20038;-79
2021/08/14 07:53:02;;;;;;;11.30;6.05;;;;;;;21.98;60.54;101175.34;4971121;28;20042;-79
2021/08/14 07:55:28;;;;;;;9.35;6.47;;;;;;;22.02;59.85;101179.63;4974033;28;20070;-79
2021/08/14 07:57:53;;;;;;;10.50;6.00;;;;;;;22.06;58.32;101183.06;4977381;28;20106;-79
2021/08/14 08:00:22;;;;;;;10.43;5.53;;;;;;;22.12;58.57;101174.75;4977336;28;20066;-79
2021/08/14 08:02:47;;;;;;;9.00;5.63;;;;;;;22.20;58.73;101171.75;4980846;28;20090;-79
2021/08/14 08:05:13;;;;;;;7.63;5.72;;;;;;;22.25;58.81;101169.75;4962468;28;20062;-80
2021/08/14 08:07:45;;;;;;;7.80;5.57;;;;;;;22.20;59.11;101172.63;4960179;28;20034;-79
2021/08/14 08:10:15;;;;;;;8.82;5.68;;;;;;;22.28;59.60;101175.84;4960856;28;20065;-79
2021/08/14 08:12:41;;;;;;;9.05;5.60;;;;;;;22.40;58.17;101169.06;4964484;28;20038;-78
2021/08/14 08:15:08;;;;;;;9.82;7.15;;;;;;;22.51;59.09;101182.00;4972696;28;20507;-79
2021/08/14 08:17:34;;;;;;;9.60;7.07;;;;;;;22.59;57.74;101185.22;4966604;28;20058;-79
2021/08/14 08:20:01;;;;;;;10.70;5.68;;;;;;;22.62;57.89;101179.69;4952566;28;20047;-79
2021/08/14 08:22:27;;;;;;;9.75;6.05;;;;;;;22.66;58.21;101175.03;4974408;28;20042;-79
2021/08/14 08:24:52;;;;;;;10.23;5.65;;;;;;;22.74;57.62;101172.84;4967391;28;20039;-79
2021/08/14 08:27:17;;;;;;;8.77;6.10;;;;;;;22.72;57.67;101172.94;4968984;28;20038;-79
2021/08/14 08:29:43;;;;;;;10.52;6.03;;;;;;;22.76;57.46;101160.19;4967440;28;20088;-79
2021/08/14 08:32:08;;;;;;;8.18;5.20;;;;;;;22.89;57.78;101172.13;4968409;28;20039;-79
2021/08/14 08:34:34;;;;;;;7.20;5.28;;;;;;;22.87;58.54;101168.66;4972305;28;20038;-79
2021/08/14 08:37:01;;;;;;;9.82;6.32;;;;;;;22.96;57.75;101167.34;4965996;28;20442;-79
2021/08/14 08:39:26;;;;;;;10.60;5.57;;;;;;;23.05;57.66;101164.22;4969327;28;20038;-79
2021/08/14 08:41:52;;;;;;;7.45;5.55;;;;;;;23.10;57.18;101151.41;4948953;29;20177;-79
2021/08/14 08:44:18;;;;;;;8.57;6.15;;;;;;;23.26;57.59;101153.38;4952675;28;20038;-79
2021/08/14 08:46:46;;;;;;;8.30;5.75;;;;;;;23.36;56.78;101165.44;4966760;28;20051;-79
2021/08/14 08:49:14;;;;;;;9.85;5.47;;;;;;;23.32;56.10;101153.09;4935539;28;20041;-79
2021/08/14 08:51:39;;;;;;;9.15;5.18;;;;;;;23.34;56.95;101170.03;4967582;28;20107;-79
2021/08/14 08:54:05;;;;;;;8.90;6.13;;;;;;;23.41;54.25;101160.69;4950435;28;20078;-79
2021/08/14 08:56:30;;;;;;;10.07;5.15;;;;;;;23.47;53.65;101160.38;4947634;29;20027;-79
2021/08/14 08:58:56;;;;;;;7.43;5.32;;;;;;;23.57;53.99;101153.56;4959294;28;20043;-79
2021/08/14 09:01:22;;;;;;;10.15;5.90;;;;;;;23.64;53.13;101154.16;4964788;28;20101;-80
2021/08/14 09:03:47;;;;;;;6.95;5.10;;;;;;;23.78;53.42;101154.34;4951591;28;20081;-79
2021/08/14 09:06:13;;;;;;;8.65;4.95;;;;;;;23.79;53.27;101152.53;4949016;28;20067;-79
2021/08/14 09:08:39;;;;;;;9.15;6.32;;;;;;;23.79;52.53;101157.94;4968461;28;20046;-79
2021/08/14 09:11:12;;;;;;;8.32;5.40;;;;;;;23.68;54.66;101150.34;4992222;23;20038;-76
2021/08/14 09:13:41;;;;;;;7.28;5.03;;;;;;;23.87;53.68;101144.03;4976977;28;20481;-76
2021/08/14 09:16:21;;;;;;;8.05;5.47;;;;;;;23.94;52.40;101146.31;4979371;28;20030;-76
2021/08/14 09:18:53;;;;;;;9.57;4.85;;;;;;;24.05;50.44;101143.97;4975601;28;20039;-76
2021/08/14 09:21:29;;;;;;;6.05;4.05;;;;;;;24.08;50.40;101139.34;4974740;28;20034;-76
2021/08/14 09:23:54;;;;;;;8.15;4.60;;;;;;;24.13;50.24;101131.88;4969859;28;20042;-76
2021/08/14 09:26:19;;;;;;;8.65;4.25;;;;;;;24.19;51.55;101134.28;4972494;28;20528;-76
2021/08/14 09:28:45;;;;;;;10.20;4.47;;;;;;;24.43;50.16;101134.75;4977534;28;20030;-76
2021/08/14 09:31:12;;;;;;;9.77;4.70;;;;;;;24.40;49.11;101125.00;4977281;28;20456;-76
2021/08/14 09:33:38;;;;;;;6.47;3.55;;;;;;;24.49;49.56;101124.53;4972723;28;20405;-76
2021/08/14 09:36:07;;;;;;;11.65;4.97;;;;;;;24.52;49.04;101119.91;4972187;28;20035;-76
2021/08/14 09:38:50;;;;;;;7.15;3.92;;;;;;;24.47;48.65;101112.97;4972397;28;20034;-76
2021/08/14 09:41:16;;;;;;;8.10;4.35;;;;;;;24.61;48.84;101114.88;4969390;28;20047;-76
2021/08/14 09:43:43;;;;;;;6.20;3.85;;;;;;;24.68;48.44;101110.00;4972349;28;20070;-76
2021/08/14 09:46:09;;;;;;;7.90;4.35;;;;;;;24.82;48.82;101111.94;4973636;28;20105;-76
2021/08/14 09:48:35;;;;;;;7.78;4.10;;;;;;;24.74;47.97;101104.28;4956984;28;20041;-76
2021/08/14 09:51:00;;;;;;;6.25;3.85;;;;;;;24.77;47.60;101108.63;4972491;28;20042;-75
2021/08/14 09:53:29;;;;;;;6.05;3.92;;;;;;;24.82;47.78;101104.72;4972489;28;20039;-76
2021/08/14 09:56:09;;;;;;;7.85;3.95;;;;;;;25.09;48.12;101112.19;4972137;28;20437;-76
2021/08/14 09:58:36;;;;;;;9.60;4.30;;;;;;;25.16;47.51;101105.53;4970138;28;20074;-76
2021/08/14 10:01:02;;;;;;;6.90;4.00;;;;;;;25.19;47.87;101113.44;4972420;28;20117;-76
2021/08/14 10:03:29;;;;;;;7.55;4.32;;;;;;;25.22;46.75;101099.75;4972425;28;20034;-76
2021/08/14 10:05:55;;;;;;;6.30;3.90;;;;;;;25.13;47.69;101105.66;4972042;28;20039;-76
2021/08/14 10:08:20;;;;;;;6.78;3.85;;;;;;;25.25;47.89;101094.16;4972288;28;20039;-76
2021/08/14 10:10:46;;;;;;;6.10;3.85;;;;;;;25.39;47.23;101092.47;4971649;28;20568;-76
2021/08/14 10:13:12;;;;;;;10.43;4.35;;;;;;;25.43;46.21;101085.94;4972037;28;20049;-75
2021/08/14 10:15:37;;;;;;;6.22;4.10;;;;;;;25.39;46.43;101084.38;4971696;28;20031;-75
2021/08/14 10:18:03;;;;;;;8.00;4.10;;;;;;;25.59;46.34;101075.94;4972155;28;20158;-76
2021/08/14 10:20:29;;;;;;;5.78;3.95;;;;;;;25.69;46.74;101074.44;4971842;28;20042;-76
2021/08/14 10:22:57;;;;;;;6.53;4.03;;;;;;;25.85;46.56;101076.22;4977624;28;20089;-76
2021/08/14 10:25:23;;;;;;;7.70;4.38;;;;;;;25.96;45.25;101068.31;4954243;28;20106;-77
2021/08/14 10:28:00;;;;;;;8.75;4.22;;;;;;;25.78;45.13;101073.88;4972398;28;20050;-76
2021/08/14 10:30:48;;;;;;;6.03;3.83;;;;;;;25.88;44.27;101066.09;4978965;28;20030;-76
2021/08/14 10:33:29;;;;;;;8.07;4.15;;;;;;;25.91;45.06;101065.91;4966007;28;20043;-76
2021/08/14 10:35:59;;;;;;;7.55;3.95;;;;;;;26.13;43.94;101060.03;4968002;28;20070;-76
2021/08/14 10:38:43;;;;;;;7.93;4.63;;;;;;;26.09;43.34;101060.31;4972087;28;20081;-76
2021/08/14 10:41:10;;;;;;;7.85;3.53;;;;;;;26.32;44.90;101059.72;4973225;28;20044;-76
2021/08/14 10:43:54;;;;;;;8.00;4.00;;;;;;;26.54;44.06;101061.97;4971377;28;20042;-75
2021/08/14 10:46:31;;;;;;;6.95;3.60;;;;;;;26.67;43.42;101043.97;4975152;28;20394;-76
2021/08/14 10:48:58;;;;;;;7.75;3.70;;;;;;;26.74;42.04;101043.53;4955031;28;20043;-76
2021/08/14 10:51:43;;;;;;;5.18;3.33;;;;;;;26.78;42.34;101047.81;4975251;28;20065;-76
2021/08/14 10:54:08;;;;;;;8.75;3.63;;;;;;;26.58;41.43;101043.69;4975361;28;20039;-76
2021/08/14 10:56:50;;;;;;;5.47;3.47;;;;;;;26.49;41.62;101042.41;4957971;28;20034;-76
2021/08/14 10:59:51;;;;;;;5.80;2.90;;;;;;;26.56;41.74;101038.34;4975378;28;20046;-76
2021/08/14 11:02:16;;;;;;;7.03;3.70;;;;;;;26.66;40.92;101023.25;4974583;28;20046;-75
2021/08/14 11:04:55;;;;;;;7.00;3.70;;;;;;;26.67;41.47;101027.72;4975370;28;20062;-76
2021/08/14 11:07:20;;;;;;;6.35;3.75;;;;;;;26.82;41.14;101019.53;4972706;28;20038;-76
2021/08/14 11:09:52;;;;;;;6.43;3.55;;;;;;;26.82;40.00;101025.81;4958003;28;20049;-76
2021/08/14 11:12:44;;;;;;;5.90;3.63;;;;;;;26.82;40.09;101014.97;4975119;28;20038;-76
2021/08/14 11:15:24;;;;;;;7.65;3.60;;;;;;;26.74;40.04;101022.75;4973446;28;20118;-76
2021/08/14 11:17:55;;;;;;;6.10;3.60;;;;;;;26.88;40.23;101017.28;4954764;28;20096;-76